PWSweather.com
Personal Weather Stations
Station Observations
WISCHPK61
Green Bay Schmitt Park, Green Bay, WI 54311

Green Bay Schmitt ParkGreen Bay, WI 54311

Lat: 44.514277, Lon: -87.935067

Elevation: 735

Station Type: Acu Rite Pro Weather Center model 02032C

http://greenbayweathercam.com

High Low Average
Temperature 80.2°F26.8°C 60.6°F15.9°C 68.6°F20.3°C
Dew Point 79.9°F26.6°C 60.3°F15.7°C 68.3°F20.2°C
Winds Calm Calm Calm Calm Calm SCalm S
Wind Gusts -- -- --
Humidity 99% 99% 99%
Pressure 29.39 in995.3 mb 29.33 in993.2 mb -
Precipitation 0.06 in1.5 mm - -
Hour Temp Dew Point Humidity Winds Wind Gusts Pressure Precip Precip Rate Daily Precip Total
12:00 AM 64.9°F18.3°C 64.6°F18.1°C 99% Calm Calm -- 29.37 in994.6 mb - 0.00 in0.0 mm 0.00 in0.0 mm
01:00 AM 63.7°F17.6°C 63.4°F17.4°C 99% Calm Calm -- 29.38 in994.9 mb - 0.00 in0.0 mm 0.00 in0.0 mm
02:00 AM 63.0°F17.2°C 62.7°F17.1°C 99% Calm Calm -- 29.37 in994.6 mb - 0.00 in0.0 mm 0.00 in0.0 mm
03:00 AM 62.6°F17.0°C 62.3°F16.8°C 99% Calm Calm -- 29.37 in994.6 mb - 0.00 in0.0 mm 0.00 in0.0 mm
04:00 AM 61.7°F16.5°C 61.4°F16.3°C 99% Calm Calm -- 29.37 in994.6 mb - 0.00 in0.0 mm 0.00 in0.0 mm
05:00 AM 61.2°F16.2°C 60.9°F16.1°C 99% Calm Calm -- 29.37 in994.6 mb - 0.00 in0.0 mm 0.00 in0.0 mm
06:00 AM 60.6°F15.9°C 60.3°F15.7°C 99% Calm Calm -- 29.37 in994.6 mb - 0.00 in0.0 mm 0.00 in0.0 mm
07:00 AM 61.0°F16.1°C 60.7°F15.9°C 99% Calm Calm -- 29.38 in994.9 mb - 0.00 in0.0 mm 0.00 in0.0 mm
08:00 AM 62.7°F17.1°C 62.4°F16.9°C 99% Calm Calm -- 29.38 in994.9 mb - 0.00 in0.0 mm 0.00 in0.0 mm
09:00 AM 67.5°F19.7°C 67.3°F19.6°C 99% Calm Calm -- 29.38 in994.9 mb - 0.00 in0.0 mm 0.00 in0.0 mm
10:00 AM 73.2°F22.9°C 72.9°F22.7°C 99% Calm Calm -- 29.39 in995.3 mb - 0.00 in0.0 mm 0.00 in0.0 mm
11:00 AM 76.5°F24.7°C 76.2°F24.6°C 99% Calm Calm -- 29.38 in994.9 mb - 0.00 in0.0 mm 0.00 in0.0 mm
12:00 PM 80.2°F26.8°C 79.9°F26.6°C 99% Calm Calm -- 29.37 in994.6 mb - 0.00 in0.0 mm 0.00 in0.0 mm
01:00 PM 71.4°F21.9°C 71.1°F21.7°C 99% Calm Calm -- 29.37 in994.6 mb - 0.04 in1.0 mm 0.04 in1.0 mm
02:00 PM 66.2°F19.0°C 65.9°F18.8°C 99% Calm Calm -- 29.37 in994.6 mb - 0.06 in1.5 mm 0.06 in1.5 mm
03:00 PM 66.4°F19.1°C 66.2°F19.0°C 99% Calm Calm -- 29.36 in994.2 mb - 0.00 in0.0 mm 0.06 in1.5 mm
04:00 PM 75.2°F24.0°C 74.9°F23.8°C 99% Calm Calm -- 29.34 in993.6 mb - 0.00 in0.0 mm 0.06 in1.5 mm
05:00 PM 76.6°F24.8°C 76.3°F24.6°C 99% Calm Calm -- 29.35 in993.9 mb - 0.00 in0.0 mm 0.06 in1.5 mm
06:00 PM 77.4°F25.2°C 77.1°F25.1°C 99% Calm Calm -- 29.33 in993.2 mb - 0.00 in0.0 mm 0.06 in1.5 mm
07:00 PM 76.6°F24.8°C 76.3°F24.6°C 99% Calm Calm -- 29.33 in993.2 mb - 0.00 in0.0 mm 0.06 in1.5 mm
08:00 PM 73.0°F22.8°C 72.7°F22.6°C 99% Calm Calm -- 29.34 in993.6 mb - 0.00 in0.0 mm 0.06 in1.5 mm
09:00 PM 70.2°F21.2°C 69.9°F21.1°C 99% Calm Calm -- 29.36 in994.2 mb - 0.00 in0.0 mm 0.06 in1.5 mm
10:00 PM 67.8°F19.9°C 67.5°F19.7°C 99% Calm Calm -- 29.36 in994.2 mb - 0.00 in0.0 mm 0.06 in1.5 mm
11:00 PM 66.2°F19.0°C 65.9°F18.8°C 99% Calm Calm -- 29.37 in994.6 mb - 0.00 in0.0 mm 0.06 in1.5 mm